sensor_id;sensor_type;location;lat;lon;timestamp;pressure;altitude;pressure_sealevel;temperature
73937;BMP180;59249;59.736;30.568;2023-10-09T00:01:05;99866.00;;;3.30
73937;BMP180;59249;59.736;30.568;2023-10-09T00:03:40;99877.00;;;3.30
73937;BMP180;59249;59.736;30.568;2023-10-09T00:06:10;99873.00;;;3.30
73937;BMP180;59249;59.736;30.568;2023-10-09T00:08:42;99851.00;;;3.40
73937;BMP180;59249;59.736;30.568;2023-10-09T00:11:12;99861.00;;;3.30
73937;BMP180;59249;59.736;30.568;2023-10-09T00:13:45;99859.00;;;3.30
73937;BMP180;59249;59.736;30.568;2023-10-09T00:16:21;99867.00;;;3.30
73937;BMP180;59249;59.736;30.568;2023-10-09T00:19:03;99866.00;;;3.30
73937;BMP180;59249;59.736;30.568;2023-10-09T00:21:44;99873.00;;;3.20
73937;BMP180;59249;59.736;30.568;2023-10-09T00:24:15;99873.00;;;3.30
73937;BMP180;59249;59.736;30.568;2023-10-09T00:26:51;99875.00;;;3.20
73937;BMP180;59249;59.736;30.568;2023-10-09T00:29:23;99873.00;;;3.10
73937;BMP180;59249;59.736;30.568;2023-10-09T00:32:02;99872.00;;;3.30
73937;BMP180;59249;59.736;30.568;2023-10-09T00:34:40;99872.00;;;3.10
73937;BMP180;59249;59.736;30.568;2023-10-09T00:37:09;99873.00;;;3.20
73937;BMP180;59249;59.736;30.568;2023-10-09T00:39:45;99879.00;;;3.20
73937;BMP180;59249;59.736;30.568;2023-10-09T00:42:16;99884.00;;;3.20
73937;BMP180;59249;59.736;30.568;2023-10-09T00:44:55;99894.00;;;3.10
73937;BMP180;59249;59.736;30.568;2023-10-09T00:47:33;99901.00;;;3.10
73937;BMP180;59249;59.736;30.568;2023-10-09T00:50:04;99896.00;;;3.10
73937;BMP180;59249;59.736;30.568;2023-10-09T00:52:51;99899.00;;;3.10
73937;BMP180;59249;59.736;30.568;2023-10-09T00:55:31;99887.00;;;3.10
73937;BMP180;59249;59.736;30.568;2023-10-09T00:58:06;99893.00;;;3.10
73937;BMP180;59249;59.736;30.568;2023-10-09T01:00:41;99896.00;;;3.10
73937;BMP180;59249;59.736;30.568;2023-10-09T01:03:16;99902.00;;;3.00
73937;BMP180;59249;59.736;30.568;2023-10-09T01:05:51;99927.00;;;3.00
73937;BMP180;59249;59.736;30.568;2023-10-09T01:08:26;99894.00;;;3.10
73937;BMP180;59249;59.736;30.568;2023-10-09T01:11:13;99908.00;;;3.00
73937;BMP180;59249;59.736;30.568;2023-10-09T01:13:47;99900.00;;;3.10
73937;BMP180;59249;59.736;30.568;2023-10-09T01:16:23;99904.00;;;3.10
73937;BMP180;59249;59.736;30.568;2023-10-09T01:18:53;99895.00;;;3.10
73937;BMP180;59249;59.736;30.568;2023-10-09T01:21:25;99902.00;;;3.00
73937;BMP180;59249;59.736;30.568;2023-10-09T01:23:56;99915.00;;;3.00
73937;BMP180;59249;59.736;30.568;2023-10-09T01:26:33;99899.00;;;3.10
73937;BMP180;59249;59.736;30.568;2023-10-09T01:29:14;99916.00;;;3.00
73937;BMP180;59249;59.736;30.568;2023-10-09T01:31:47;99900.00;;;3.00
73937;BMP180;59249;59.736;30.568;2023-10-09T01:34:24;99918.00;;;3.00
73937;BMP180;59249;59.736;30.568;2023-10-09T01:37:07;99938.00;;;3.00
73937;BMP180;59249;59.736;30.568;2023-10-09T01:39:43;99919.00;;;3.00
73937;BMP180;59249;59.736;30.568;2023-10-09T01:42:12;99918.00;;;3.20
73937;BMP180;59249;59.736;30.568;2023-10-09T01:44:51;99922.00;;;3.00
73937;BMP180;59249;59.736;30.568;2023-10-09T01:47:21;99909.00;;;2.90
73937;BMP180;59249;59.736;30.568;2023-10-09T01:49:49;99904.00;;;3.00
73937;BMP180;59249;59.736;30.568;2023-10-09T01:52:20;99916.00;;;3.00
73937;BMP180;59249;59.736;30.568;2023-10-09T01:54:53;99892.00;;;3.00
73937;BMP180;59249;59.736;30.568;2023-10-09T01:57:30;99944.00;;;3.00
73937;BMP180;59249;59.736;30.568;2023-10-09T02:00:01;99912.00;;;3.10
73937;BMP180;59249;59.736;30.568;2023-10-09T02:02:38;99935.00;;;3.00
73937;BMP180;59249;59.736;30.568;2023-10-09T02:05:12;99913.00;;;3.00
73937;BMP180;59249;59.736;30.568;2023-10-09T02:07:52;99925.00;;;3.00
73937;BMP180;59249;59.736;30.568;2023-10-09T02:10:23;99937.00;;;3.10
73937;BMP180;59249;59.736;30.568;2023-10-09T02:13:04;99930.00;;;3.00
73937;BMP180;59249;59.736;30.568;2023-10-09T02:15:44;99928.00;;;2.90
73937;BMP180;59249;59.736;30.568;2023-10-09T02:18:21;99929.00;;;3.00
73937;BMP180;59249;59.736;30.568;2023-10-09T02:21:20;99925.00;;;3.00
73937;BMP180;59249;59.736;30.568;2023-10-09T02:24:02;99929.00;;;3.00
73937;BMP180;59249;59.736;30.568;2023-10-09T02:26:35;99946.00;;;2.90
73937;BMP180;59249;59.736;30.568;2023-10-09T02:29:29;99965.00;;;2.90
73937;BMP180;59249;59.736;30.568;2023-10-09T02:32:02;99940.00;;;2.90
73937;BMP180;59249;59.736;30.568;2023-10-09T02:34:40;99921.00;;;3.00
73937;BMP180;59249;59.736;30.568;2023-10-09T02:37:13;99937.00;;;2.90
73937;BMP180;59249;59.736;30.568;2023-10-09T02:39:50;99931.00;;;3.00
73937;BMP180;59249;59.736;30.568;2023-10-09T02:42:21;99936.00;;;3.00
73937;BMP180;59249;59.736;30.568;2023-10-09T02:44:54;99928.00;;;3.00
73937;BMP180;59249;59.736;30.568;2023-10-09T02:47:26;99941.00;;;3.00
73937;BMP180;59249;59.736;30.568;2023-10-09T02:49:58;99928.00;;;2.90
73937;BMP180;59249;59.736;30.568;2023-10-09T02:52:34;99952.00;;;2.90
73937;BMP180;59249;59.736;30.568;2023-10-09T02:55:08;99927.00;;;3.10
73937;BMP180;59249;59.736;30.568;2023-10-09T02:57:42;99946.00;;;3.10
73937;BMP180;59249;59.736;30.568;2023-10-09T03:00:13;99935.00;;;3.00
73937;BMP180;59249;59.736;30.568;2023-10-09T03:02:47;99954.00;;;3.00
73937;BMP180;59249;59.736;30.568;2023-10-09T03:05:18;99954.00;;;3.00
73937;BMP180;59249;59.736;30.568;2023-10-09T03:07:48;99956.00;;;3.00
73937;BMP180;59249;59.736;30.568;2023-10-09T03:10:21;99935.00;;;3.00
73937;BMP180;59249;59.736;30.568;2023-10-09T03:12:52;99979.00;;;3.00
73937;BMP180;59249;59.736;30.568;2023-10-09T03:15:21;99936.00;;;3.00
73937;BMP180;59249;59.736;30.568;2023-10-09T03:17:51;99953.00;;;3.00
73937;BMP180;59249;59.736;30.568;2023-10-09T03:20:20;99948.00;;;3.00
73937;BMP180;59249;59.736;30.568;2023-10-09T03:22:50;99963.00;;;3.00
73937;BMP180;59249;59.736;30.568;2023-10-09T03:25:21;99962.00;;;2.90
73937;BMP180;59249;59.736;30.568;2023-10-09T03:27:54;99956.00;;;3.00
73937;BMP180;59249;59.736;30.568;2023-10-09T03:30:26;99962.00;;;2.90
73937;BMP180;59249;59.736;30.568;2023-10-09T03:32:55;99964.00;;;2.90
73937;BMP180;59249;59.736;30.568;2023-10-09T03:35:24;99955.00;;;3.00
73937;BMP180;59249;59.736;30.568;2023-10-09T03:37:57;99946.00;;;3.00
73937;BMP180;59249;59.736;30.568;2023-10-09T03:40:28;99950.00;;;2.90
73937;BMP180;59249;59.736;30.568;2023-10-09T03:43:01;99955.00;;;2.90
73937;BMP180;59249;59.736;30.568;2023-10-09T03:45:31;99969.00;;;2.90
73937;BMP180;59249;59.736;30.568;2023-10-09T03:48:03;99967.00;;;3.00
73937;BMP180;59249;59.736;30.568;2023-10-09T03:50:38;99952.00;;;3.10
73937;BMP180;59249;59.736;30.568;2023-10-09T03:53:10;99960.00;;;3.00
73937;BMP180;59249;59.736;30.568;2023-10-09T03:55:40;99954.00;;;3.00
73937;BMP180;59249;59.736;30.568;2023-10-09T03:58:10;99953.00;;;3.00
73937;BMP180;59249;59.736;30.568;2023-10-09T04:00:40;99925.00;;;3.00
73937;BMP180;59249;59.736;30.568;2023-10-09T04:03:15;99951.00;;;3.00
73937;BMP180;59249;59.736;30.568;2023-10-09T04:05:44;99951.00;;;3.00
73937;BMP180;59249;59.736;30.568;2023-10-09T04:08:13;99957.00;;;2.90
73937;BMP180;59249;59.736;30.568;2023-10-09T04:10:47;99954.00;;;3.00
73937;BMP180;59249;59.736;30.568;2023-10-09T04:13:31;99949.00;;;3.00
73937;BMP180;59249;59.736;30.568;2023-10-09T04:16:03;99956.00;;;2.80
73937;BMP180;59249;59.736;30.568;2023-10-09T04:18:40;99961.00;;;2.90
73937;BMP180;59249;59.736;30.568;2023-10-09T04:21:13;99968.00;;;3.00
73937;BMP180;59249;59.736;30.568;2023-10-09T04:23:47;99954.00;;;2.90
73937;BMP180;59249;59.736;30.568;2023-10-09T04:26:37;99975.00;;;2.80
73937;BMP180;59249;59.736;30.568;2023-10-09T04:29:13;99959.00;;;2.90
73937;BMP180;59249;59.736;30.568;2023-10-09T04:31:54;99973.00;;;2.80
73937;BMP180;59249;59.736;30.568;2023-10-09T04:34:26;99973.00;;;2.80
73937;BMP180;59249;59.736;30.568;2023-10-09T04:37:02;99990.00;;;2.80
73937;BMP180;59249;59.736;30.568;2023-10-09T04:39:46;99986.00;;;2.70
73937;BMP180;59249;59.736;30.568;2023-10-09T04:42:29;99988.00;;;2.80
73937;BMP180;59249;59.736;30.568;2023-10-09T04:45:10;99982.00;;;2.80
73937;BMP180;59249;59.736;30.568;2023-10-09T04:48:09;99993.00;;;2.80
73937;BMP180;59249;59.736;30.568;2023-10-09T04:50:38;99982.00;;;2.90
73937;BMP180;59249;59.736;30.568;2023-10-09T04:53:25;100002.00;;;2.90
73937;BMP180;59249;59.736;30.568;2023-10-09T04:55:57;100018.00;;;3.00
73937;BMP180;59249;59.736;30.568;2023-10-09T04:58:31;100009.00;;;3.00
73937;BMP180;59249;59.736;30.568;2023-10-09T05:01:17;100004.00;;;3.00
73937;BMP180;59249;59.736;30.568;2023-10-09T05:04:04;100011.00;;;3.20
73937;BMP180;59249;59.736;30.568;2023-10-09T05:06:47;100027.00;;;3.10
73937;BMP180;59249;59.736;30.568;2023-10-09T05:09:23;100019.00;;;3.20
73937;BMP180;59249;59.736;30.568;2023-10-09T05:11:53;100017.00;;;3.20
73937;BMP180;59249;59.736;30.568;2023-10-09T05:14:27;100010.00;;;3.20
73937;BMP180;59249;59.736;30.568;2023-10-09T05:17:08;100029.00;;;3.20
73937;BMP180;59249;59.736;30.568;2023-10-09T05:19:44;100011.00;;;3.30
73937;BMP180;59249;59.736;30.568;2023-10-09T05:22:27;100027.00;;;3.30
73937;BMP180;59249;59.736;30.568;2023-10-09T05:25:05;100025.00;;;3.40
73937;BMP180;59249;59.736;30.568;2023-10-09T05:28:12;100025.00;;;3.40
73937;BMP180;59249;59.736;30.568;2023-10-09T05:30:59;100034.00;;;3.40
73937;BMP180;59249;59.736;30.568;2023-10-09T05:33:37;100037.00;;;3.50
73937;BMP180;59249;59.736;30.568;2023-10-09T05:36:07;100034.00;;;3.40
73937;BMP180;59249;59.736;30.568;2023-10-09T05:39:18;100031.00;;;3.50
73937;BMP180;59249;59.736;30.568;2023-10-09T05:42:08;100023.00;;;3.50
73937;BMP180;59249;59.736;30.568;2023-10-09T05:44:37;100023.00;;;3.50
73937;BMP180;59249;59.736;30.568;2023-10-09T05:47:38;100029.00;;;3.60
73937;BMP180;59249;59.736;30.568;2023-10-09T05:50:18;100035.00;;;3.60
73937;BMP180;59249;59.736;30.568;2023-10-09T05:53:05;100022.00;;;3.70
73937;BMP180;59249;59.736;30.568;2023-10-09T05:55:53;100033.00;;;3.60
73937;BMP180;59249;59.736;30.568;2023-10-09T05:58:40;100025.00;;;3.70
73937;BMP180;59249;59.736;30.568;2023-10-09T06:01:28;100049.00;;;3.70
73937;BMP180;59249;59.736;30.568;2023-10-09T06:04:14;100037.00;;;3.60
73937;BMP180;59249;59.736;30.568;2023-10-09T06:06:51;100043.00;;;3.70
73937;BMP180;59249;59.736;30.568;2023-10-09T06:09:24;100041.00;;;3.60
73937;BMP180;59249;59.736;30.568;2023-10-09T06:12:19;100038.00;;;3.80
73937;BMP180;59249;59.736;30.568;2023-10-09T06:15:38;100032.00;;;3.70
73937;BMP180;59249;59.736;30.568;2023-10-09T06:18:28;100035.00;;;3.80
73937;BMP180;59249;59.736;30.568;2023-10-09T06:21:02;100049.00;;;3.80
73937;BMP180;59249;59.736;30.568;2023-10-09T06:23:57;100033.00;;;3.80
73937;BMP180;59249;59.736;30.568;2023-10-09T06:26:43;100056.00;;;3.80
73937;BMP180;59249;59.736;30.568;2023-10-09T06:29:41;100040.00;;;3.90
73937;BMP180;59249;59.736;30.568;2023-10-09T06:32:44;100042.00;;;3.80
73937;BMP180;59249;59.736;30.568;2023-10-09T06:35:18;100037.00;;;3.80
73937;BMP180;59249;59.736;30.568;2023-10-09T06:37:50;100032.00;;;4.00
73937;BMP180;59249;59.736;30.568;2023-10-09T06:40:39;100038.00;;;3.90
73937;BMP180;59249;59.736;30.568;2023-10-09T06:43:27;100052.00;;;3.90
73937;BMP180;59249;59.736;30.568;2023-10-09T06:45:58;100054.00;;;3.70
73937;BMP180;59249;59.736;30.568;2023-10-09T06:48:50;100048.00;;;3.70
73937;BMP180;59249;59.736;30.568;2023-10-09T06:51:24;100049.00;;;3.70
73937;BMP180;59249;59.736;30.568;2023-10-09T06:54:09;100041.00;;;3.80
73937;BMP180;59249;59.736;30.568;2023-10-09T06:56:48;100053.00;;;3.80
73937;BMP180;59249;59.736;30.568;2023-10-09T06:59:46;100052.00;;;3.90
73937;BMP180;59249;59.736;30.568;2023-10-09T07:02:40;100038.00;;;3.80
73937;BMP180;59249;59.736;30.568;2023-10-09T07:05:17;100045.00;;;3.90
73937;BMP180;59249;59.736;30.568;2023-10-09T07:07:46;100057.00;;;4.00
73937;BMP180;59249;59.736;30.568;2023-10-09T07:10:24;100046.00;;;4.00
73937;BMP180;59249;59.736;30.568;2023-10-09T07:13:19;100036.00;;;4.00
73937;BMP180;59249;59.736;30.568;2023-10-09T07:15:51;100063.00;;;4.10
73937;BMP180;59249;59.736;30.568;2023-10-09T07:18:38;100067.00;;;3.90
73937;BMP180;59249;59.736;30.568;2023-10-09T07:21:21;100063.00;;;4.00
73937;BMP180;59249;59.736;30.568;2023-10-09T07:24:01;100058.00;;;4.00
73937;BMP180;59249;59.736;30.568;2023-10-09T07:26:43;100065.00;;;3.90
73937;BMP180;59249;59.736;30.568;2023-10-09T07:29:20;100076.00;;;4.00
73937;BMP180;59249;59.736;30.568;2023-10-09T07:32:15;100099.00;;;4.10
73937;BMP180;59249;59.736;30.568;2023-10-09T07:34:48;100080.00;;;4.10
73937;BMP180;59249;59.736;30.568;2023-10-09T07:37:29;100077.00;;;4.20
73937;BMP180;59249;59.736;30.568;2023-10-09T07:40:05;100064.00;;;4.10
73937;BMP180;59249;59.736;30.568;2023-10-09T07:42:37;100082.00;;;4.00
73937;BMP180;59249;59.736;30.568;2023-10-09T07:45:20;100083.00;;;4.00
73937;BMP180;59249;59.736;30.568;2023-10-09T07:48:06;100083.00;;;4.10
73937;BMP180;59249;59.736;30.568;2023-10-09T07:50:44;100083.00;;;4.10
73937;BMP180;59249;59.736;30.568;2023-10-09T07:53:19;100061.00;;;4.20
73937;BMP180;59249;59.736;30.568;2023-10-09T07:55:55;100089.00;;;4.30
73937;BMP180;59249;59.736;30.568;2023-10-09T07:58:25;100083.00;;;4.30
73937;BMP180;59249;59.736;30.568;2023-10-09T08:00:57;100089.00;;;4.30
73937;BMP180;59249;59.736;30.568;2023-10-09T08:03:46;100077.00;;;4.40
73937;BMP180;59249;59.736;30.568;2023-10-09T08:06:25;100091.00;;;4.50
73937;BMP180;59249;59.736;30.568;2023-10-09T08:09:09;100088.00;;;4.60
73937;BMP180;59249;59.736;30.568;2023-10-09T08:12:08;100098.00;;;4.70
73937;BMP180;59249;59.736;30.568;2023-10-09T08:15:02;100094.00;;;4.70
73937;BMP180;59249;59.736;30.568;2023-10-09T08:17:54;100094.00;;;4.70
73937;BMP180;59249;59.736;30.568;2023-10-09T08:20:27;100106.00;;;4.80
73937;BMP180;59249;59.736;30.568;2023-10-09T08:23:03;100092.00;;;4.60
73937;BMP180;59249;59.736;30.568;2023-10-09T08:25:50;100094.00;;;4.80
73937;BMP180;59249;59.736;30.568;2023-10-09T08:28:40;100101.00;;;4.90
73937;BMP180;59249;59.736;30.568;2023-10-09T08:31:12;100090.00;;;5.00
73937;BMP180;59249;59.736;30.568;2023-10-09T08:34:07;100101.00;;;5.10
73937;BMP180;59249;59.736;30.568;2023-10-09T08:36:39;100112.00;;;5.00
73937;BMP180;59249;59.736;30.568;2023-10-09T08:39:20;100100.00;;;5.00
73937;BMP180;59249;59.736;30.568;2023-10-09T08:42:02;100105.00;;;4.90
73937;BMP180;59249;59.736;30.568;2023-10-09T08:44:36;100112.00;;;5.00
73937;BMP180;59249;59.736;30.568;2023-10-09T08:47:12;100111.00;;;5.10
73937;BMP180;59249;59.736;30.568;2023-10-09T08:49:44;100120.00;;;5.10
73937;BMP180;59249;59.736;30.568;2023-10-09T08:52:13;100110.00;;;5.00
73937;BMP180;59249;59.736;30.568;2023-10-09T08:54:43;100116.00;;;5.00
73937;BMP180;59249;59.736;30.568;2023-10-09T08:57:15;100113.00;;;5.00
73937;BMP180;59249;59.736;30.568;2023-10-09T08:59:47;100123.00;;;5.10
73937;BMP180;59249;59.736;30.568;2023-10-09T09:02:16;100123.00;;;5.10
73937;BMP180;59249;59.736;30.568;2023-10-09T09:04:45;100112.00;;;5.10
73937;BMP180;59249;59.736;30.568;2023-10-09T09:07:25;100123.00;;;5.20
73937;BMP180;59249;59.736;30.568;2023-10-09T09:09:59;100127.00;;;5.00
73937;BMP180;59249;59.736;30.568;2023-10-09T09:12:47;100128.00;;;4.90
73937;BMP180;59249;59.736;30.568;2023-10-09T09:15:21;100128.00;;;5.10
73937;BMP180;59249;59.736;30.568;2023-10-09T09:18:03;100139.00;;;5.00
73937;BMP180;59249;59.736;30.568;2023-10-09T09:20:37;100137.00;;;4.90
73937;BMP180;59249;59.736;30.568;2023-10-09T09:23:10;100127.00;;;4.90
73937;BMP180;59249;59.736;30.568;2023-10-09T09:25:41;100131.00;;;5.00
73937;BMP180;59249;59.736;30.568;2023-10-09T09:28:15;100127.00;;;5.00
73937;BMP180;59249;59.736;30.568;2023-10-09T09:30:48;100122.00;;;5.00
73937;BMP180;59249;59.736;30.568;2023-10-09T09:33:20;100136.00;;;5.00
73937;BMP180;59249;59.736;30.568;2023-10-09T09:36:01;100140.00;;;5.00
73937;BMP180;59249;59.736;30.568;2023-10-09T09:38:34;100147.00;;;5.10
73937;BMP180;59249;59.736;30.568;2023-10-09T09:41:09;100146.00;;;5.00
73937;BMP180;59249;59.736;30.568;2023-10-09T09:43:44;100149.00;;;5.10
73937;BMP180;59249;59.736;30.568;2023-10-09T09:46:15;100159.00;;;5.00
73937;BMP180;59249;59.736;30.568;2023-10-09T09:48:51;100136.00;;;4.80
73937;BMP180;59249;59.736;30.568;2023-10-09T09:51:21;100151.00;;;4.90
73937;BMP180;59249;59.736;30.568;2023-10-09T09:53:50;100143.00;;;5.00
73937;BMP180;59249;59.736;30.568;2023-10-09T09:56:24;100144.00;;;5.10
73937;BMP180;59249;59.736;30.568;2023-10-09T09:58:57;100150.00;;;4.90
73937;BMP180;59249;59.736;30.568;2023-10-09T10:01:40;100151.00;;;5.00
73937;BMP180;59249;59.736;30.568;2023-10-09T10:04:15;100143.00;;;5.10
73937;BMP180;59249;59.736;30.568;2023-10-09T10:06:49;100171.00;;;5.20
73937;BMP180;59249;59.736;30.568;2023-10-09T10:09:34;100151.00;;;5.00
73937;BMP180;59249;59.736;30.568;2023-10-09T10:12:06;100147.00;;;5.00
73937;BMP180;59249;59.736;30.568;2023-10-09T10:14:55;100133.00;;;5.10
73937;BMP180;59249;59.736;30.568;2023-10-09T10:17:26;100147.00;;;5.10
73937;BMP180;59249;59.736;30.568;2023-10-09T10:20:01;100157.00;;;5.20
73937;BMP180;59249;59.736;30.568;2023-10-09T10:23:14;100153.00;;;5.00
73937;BMP180;59249;59.736;30.568;2023-10-09T10:25:46;100155.00;;;5.00
73937;BMP180;59249;59.736;30.568;2023-10-09T10:28:18;100154.00;;;4.80
73937;BMP180;59249;59.736;30.568;2023-10-09T10:31:05;100146.00;;;5.00
73937;BMP180;59249;59.736;30.568;2023-10-09T10:34:05;100140.00;;;5.00
73937;BMP180;59249;59.736;30.568;2023-10-09T10:36:38;100156.00;;;5.10
73937;BMP180;59249;59.736;30.568;2023-10-09T10:39:11;100149.00;;;5.20
73937;BMP180;59249;59.736;30.568;2023-10-09T10:41:55;100150.00;;;5.00
73937;BMP180;59249;59.736;30.568;2023-10-09T10:44:28;100146.00;;;5.20
73937;BMP180;59249;59.736;30.568;2023-10-09T10:47:08;100138.00;;;5.30
73937;BMP180;59249;59.736;30.568;2023-10-09T10:49:51;100146.00;;;5.40
73937;BMP180;59249;59.736;30.568;2023-10-09T10:52:26;100154.00;;;5.40
73937;BMP180;59249;59.736;30.568;2023-10-09T10:55:19;100151.00;;;5.50
73937;BMP180;59249;59.736;30.568;2023-10-09T10:58:17;100151.00;;;5.40
73937;BMP180;59249;59.736;30.568;2023-10-09T11:00:54;100137.00;;;5.40
73937;BMP180;59249;59.736;30.568;2023-10-09T11:03:45;100143.00;;;5.40
73937;BMP180;59249;59.736;30.568;2023-10-09T11:06:34;100144.00;;;5.50
73937;BMP180;59249;59.736;30.568;2023-10-09T11:09:09;100149.00;;;5.50
73937;BMP180;59249;59.736;30.568;2023-10-09T11:11:49;100158.00;;;5.40
73937;BMP180;59249;59.736;30.568;2023-10-09T11:14:22;100159.00;;;5.40
73937;BMP180;59249;59.736;30.568;2023-10-09T11:16:52;100147.00;;;5.40
73937;BMP180;59249;59.736;30.568;2023-10-09T11:19:27;100133.00;;;5.50
73937;BMP180;59249;59.736;30.568;2023-10-09T11:22:07;100149.00;;;5.50
73937;BMP180;59249;59.736;30.568;2023-10-09T11:25:06;100149.00;;;5.60
73937;BMP180;59249;59.736;30.568;2023-10-09T11:27:40;100150.00;;;5.70
73937;BMP180;59249;59.736;30.568;2023-10-09T11:30:18;100158.00;;;5.70
73937;BMP180;59249;59.736;30.568;2023-10-09T11:33:05;100148.00;;;5.70
73937;BMP180;59249;59.736;30.568;2023-10-09T11:35:35;100149.00;;;5.70
73937;BMP180;59249;59.736;30.568;2023-10-09T11:38:04;100144.00;;;5.50
73937;BMP180;59249;59.736;30.568;2023-10-09T11:40:48;100152.00;;;5.60
73937;BMP180;59249;59.736;30.568;2023-10-09T11:43:47;100165.00;;;5.50
73937;BMP180;59249;59.736;30.568;2023-10-09T11:46:22;100171.00;;;5.50
73937;BMP180;59249;59.736;30.568;2023-10-09T11:49:17;100162.00;;;5.60
73937;BMP180;59249;59.736;30.568;2023-10-09T11:52:13;100168.00;;;5.60
73937;BMP180;59249;59.736;30.568;2023-10-09T11:54:59;100168.00;;;5.50
73937;BMP180;59249;59.736;30.568;2023-10-09T11:57:30;100178.00;;;5.50
73937;BMP180;59249;59.736;30.568;2023-10-09T12:00:01;100174.00;;;5.60
73937;BMP180;59249;59.736;30.568;2023-10-09T12:02:51;100162.00;;;5.40
73937;BMP180;59249;59.736;30.568;2023-10-09T12:05:21;100166.00;;;5.50
73937;BMP180;59249;59.736;30.568;2023-10-09T12:07:52;100167.00;;;5.40
73937;BMP180;59249;59.736;30.568;2023-10-09T12:10:22;100171.00;;;5.50
73937;BMP180;59249;59.736;30.568;2023-10-09T12:12:53;100180.00;;;5.40
73937;BMP180;59249;59.736;30.568;2023-10-09T12:15:25;100170.00;;;5.50
73937;BMP180;59249;59.736;30.568;2023-10-09T12:18:05;100177.00;;;5.40
73937;BMP180;59249;59.736;30.568;2023-10-09T12:20:42;100175.00;;;5.60
73937;BMP180;59249;59.736;30.568;2023-10-09T12:23:21;100168.00;;;5.40
73937;BMP180;59249;59.736;30.568;2023-10-09T12:25:55;100169.00;;;5.50
73937;BMP180;59249;59.736;30.568;2023-10-09T12:28:24;100170.00;;;5.40
73937;BMP180;59249;59.736;30.568;2023-10-09T12:30:53;100163.00;;;5.40
73937;BMP180;59249;59.736;30.568;2023-10-09T12:33:22;100178.00;;;5.30
73937;BMP180;59249;59.736;30.568;2023-10-09T12:35:55;100176.00;;;5.30
73937;BMP180;59249;59.736;30.568;2023-10-09T12:38:29;100186.00;;;5.30
73937;BMP180;59249;59.736;30.568;2023-10-09T12:41:02;100185.00;;;5.10
73937;BMP180;59249;59.736;30.568;2023-10-09T12:43:35;100180.00;;;5.10
73937;BMP180;59249;59.736;30.568;2023-10-09T12:46:06;100176.00;;;5.20
73937;BMP180;59249;59.736;30.568;2023-10-09T12:48:35;100183.00;;;5.30
73937;BMP180;59249;59.736;30.568;2023-10-09T12:51:04;100183.00;;;5.20
73937;BMP180;59249;59.736;30.568;2023-10-09T12:53:35;100186.00;;;5.00
73937;BMP180;59249;59.736;30.568;2023-10-09T12:56:08;100198.00;;;5.00
73937;BMP180;59249;59.736;30.568;2023-10-09T12:58:42;100188.00;;;5.10
73937;BMP180;59249;59.736;30.568;2023-10-09T13:01:20;100188.00;;;5.10
73937;BMP180;59249;59.736;30.568;2023-10-09T13:03:49;100188.00;;;5.10
73937;BMP180;59249;59.736;30.568;2023-10-09T13:06:18;100180.00;;;5.30
73937;BMP180;59249;59.736;30.568;2023-10-09T13:08:53;100191.00;;;5.10
73937;BMP180;59249;59.736;30.568;2023-10-09T13:11:27;100199.00;;;5.20
73937;BMP180;59249;59.736;30.568;2023-10-09T13:13:56;100197.00;;;5.00
73937;BMP180;59249;59.736;30.568;2023-10-09T13:16:40;100201.00;;;4.90
73937;BMP180;59249;59.736;30.568;2023-10-09T13:19:09;100198.00;;;5.10
73937;BMP180;59249;59.736;30.568;2023-10-09T13:21:38;100196.00;;;5.20
73937;BMP180;59249;59.736;30.568;2023-10-09T13:24:09;100202.00;;;5.10
73937;BMP180;59249;59.736;30.568;2023-10-09T13:26:42;100203.00;;;5.20
73937;BMP180;59249;59.736;30.568;2023-10-09T13:29:14;100196.00;;;5.30
73937;BMP180;59249;59.736;30.568;2023-10-09T13:31:50;100196.00;;;5.40
73937;BMP180;59249;59.736;30.568;2023-10-09T13:34:19;100198.00;;;5.10
73937;BMP180;59249;59.736;30.568;2023-10-09T13:36:57;100205.00;;;5.20
73937;BMP180;59249;59.736;30.568;2023-10-09T13:39:40;100198.00;;;5.20
73937;BMP180;59249;59.736;30.568;2023-10-09T13:42:20;100202.00;;;5.00
73937;BMP180;59249;59.736;30.568;2023-10-09T13:44:52;100209.00;;;5.10
73937;BMP180;59249;59.736;30.568;2023-10-09T13:47:22;100206.00;;;5.20
73937;BMP180;59249;59.736;30.568;2023-10-09T13:49:59;100212.00;;;5.20
73937;BMP180;59249;59.736;30.568;2023-10-09T13:52:31;100211.00;;;5.10
73937;BMP180;59249;59.736;30.568;2023-10-09T13:55:08;100209.00;;;5.10
73937;BMP180;59249;59.736;30.568;2023-10-09T13:57:43;100217.00;;;5.00
73937;BMP180;59249;59.736;30.568;2023-10-09T14:00:14;100212.00;;;5.00
73937;BMP180;59249;59.736;30.568;2023-10-09T14:02:47;100216.00;;;4.90
73937;BMP180;59249;59.736;30.568;2023-10-09T14:05:18;100206.00;;;4.90
73937;BMP180;59249;59.736;30.568;2023-10-09T14:07:48;100210.00;;;4.60
73937;BMP180;59249;59.736;30.568;2023-10-09T14:10:18;100217.00;;;4.50
73937;BMP180;59249;59.736;30.568;2023-10-09T14:12:52;100220.00;;;4.50
73937;BMP180;59249;59.736;30.568;2023-10-09T14:15:23;100215.00;;;4.50
73937;BMP180;59249;59.736;30.568;2023-10-09T14:17:52;100215.00;;;4.50
73937;BMP180;59249;59.736;30.568;2023-10-09T14:20:25;100223.00;;;4.30
73937;BMP180;59249;59.736;30.568;2023-10-09T14:23:00;100227.00;;;4.10
73937;BMP180;59249;59.736;30.568;2023-10-09T14:25:36;100224.00;;;4.00
73937;BMP180;59249;59.736;30.568;2023-10-09T14:28:07;100227.00;;;4.20
73937;BMP180;59249;59.736;30.568;2023-10-09T14:30:38;100228.00;;;4.00
73937;BMP180;59249;59.736;30.568;2023-10-09T14:33:16;100229.00;;;3.90
73937;BMP180;59249;59.736;30.568;2023-10-09T14:35:50;100238.00;;;4.00
73937;BMP180;59249;59.736;30.568;2023-10-09T14:38:19;100246.00;;;4.00
73937;BMP180;59249;59.736;30.568;2023-10-09T14:40:55;100242.00;;;4.00
73937;BMP180;59249;59.736;30.568;2023-10-09T14:43:27;100238.00;;;4.00
73937;BMP180;59249;59.736;30.568;2023-10-09T14:46:01;100249.00;;;3.90
73937;BMP180;59249;59.736;30.568;2023-10-09T14:48:32;100246.00;;;3.90
73937;BMP180;59249;59.736;30.568;2023-10-09T14:51:04;100250.00;;;3.90
73937;BMP180;59249;59.736;30.568;2023-10-09T14:53:34;100239.00;;;3.90
73937;BMP180;59249;59.736;30.568;2023-10-09T14:56:04;100249.00;;;3.90
73937;BMP180;59249;59.736;30.568;2023-10-09T14:58:36;100252.00;;;3.90